createdAt,value
2023-04-17T00:01:10.917Z,73.90
2023-04-17T00:03:38.269Z,73.90
2023-04-17T00:06:06.424Z,73.90
2023-04-17T00:08:34.118Z,73.90
2023-04-17T00:11:07.864Z,74.00
2023-04-17T00:13:36.965Z,74.00
2023-04-17T00:16:04.498Z,74.10
2023-04-17T00:18:31.952Z,74.00
2023-04-17T00:20:59.379Z,74.00
2023-04-17T00:23:26.623Z,74.10
2023-04-17T00:25:54.056Z,74.30
2023-04-17T00:28:21.380Z,74.30
2023-04-17T00:30:48.644Z,74.40
2023-04-17T00:33:16.188Z,74.30
2023-04-17T00:35:43.496Z,74.40
2023-04-17T00:38:10.908Z,74.50
2023-04-17T00:40:38.241Z,74.60
2023-04-17T00:43:07.019Z,74.50
2023-04-17T00:45:35.543Z,74.60
2023-04-17T00:48:04.999Z,74.50
2023-04-17T00:50:33.196Z,74.50
2023-04-17T00:53:01.335Z,74.60
2023-04-17T00:55:31.354Z,74.70
2023-04-17T00:57:58.700Z,74.70
2023-04-17T01:00:26.338Z,74.70
2023-04-17T01:02:56.618Z,74.70
2023-04-17T01:05:25.709Z,74.70
2023-04-17T01:07:54.048Z,74.70
2023-04-17T01:10:21.563Z,74.60
2023-04-17T01:13:04.659Z,74.60
2023-04-17T01:15:34.073Z,74.80
2023-04-17T01:18:01.866Z,75.40
2023-04-17T01:20:30.235Z,74.70
2023-04-17T01:23:01.384Z,74.80
2023-04-17T01:25:28.892Z,74.90
2023-04-17T01:27:56.942Z,75.00
2023-04-17T01:30:24.739Z,74.90
2023-04-17T01:33:00.218Z,75.10
2023-04-17T01:35:27.520Z,75.10
2023-04-17T01:37:55.833Z,75.20
2023-04-17T01:40:23.493Z,75.20
2023-04-17T01:42:50.922Z,75.20
2023-04-17T01:45:18.435Z,75.10
2023-04-17T01:47:46.015Z,75.20
2023-04-17T01:50:13.592Z,75.30
2023-04-17T01:52:41.067Z,75.30
2023-04-17T01:55:09.434Z,75.40
2023-04-17T01:57:37.259Z,76.30
2023-04-17T02:00:08.403Z,75.60
2023-04-17T02:02:40.078Z,75.50
2023-04-17T02:05:08.061Z,75.60
2023-04-17T02:07:35.481Z,75.50
2023-04-17T02:10:02.996Z,75.60
2023-04-17T02:12:30.411Z,75.60
2023-04-17T02:15:01.335Z,75.70
2023-04-17T02:17:28.939Z,75.80
2023-04-17T02:19:56.545Z,75.80
2023-04-17T02:22:23.873Z,75.80
2023-04-17T02:24:52.159Z,75.70
2023-04-17T02:27:20.393Z,75.80
2023-04-17T02:29:47.757Z,75.80
2023-04-17T02:32:16.751Z,75.80
2023-04-17T02:34:45.401Z,75.80
2023-04-17T02:37:15.919Z,75.80
2023-04-17T02:39:43.288Z,75.90
2023-04-17T02:42:13.094Z,75.80
2023-04-17T02:44:42.027Z,75.90
2023-04-17T02:47:09.300Z,75.80
2023-04-17T02:49:36.824Z,75.80
2023-04-17T02:52:04.912Z,75.90
2023-04-17T02:54:32.254Z,75.90
2023-04-17T02:56:59.625Z,75.80
2023-04-17T02:59:28.011Z,75.90
2023-04-17T03:01:55.532Z,76.00
2023-04-17T03:04:23.099Z,76.00
2023-04-17T03:06:51.489Z,76.10
2023-04-17T03:09:22.330Z,76.00
2023-04-17T03:11:49.822Z,76.00
2023-04-17T03:14:17.144Z,76.00
2023-04-17T03:16:44.466Z,75.90
2023-04-17T03:19:12.111Z,75.90
2023-04-17T03:21:39.761Z,76.00
2023-04-17T03:24:07.189Z,76.00
2023-04-17T03:26:34.620Z,76.00
2023-04-17T03:29:06.993Z,76.00
2023-04-17T03:31:35.462Z,76.00
2023-04-17T03:34:02.832Z,75.90
2023-04-17T03:36:30.221Z,75.90
2023-04-17T03:38:58.266Z,75.80
2023-04-17T03:41:25.857Z,75.80
2023-04-17T03:43:53.991Z,75.80
2023-04-17T03:46:21.910Z,75.70
2023-04-17T03:48:49.327Z,75.60
2023-04-17T03:51:17.261Z,75.60
2023-04-17T03:53:44.569Z,75.60
2023-04-17T03:56:13.949Z,75.60
2023-04-17T03:58:44.430Z,75.60
2023-04-17T04:01:15.330Z,75.70
2023-04-17T04:04:00.536Z,75.70
2023-04-17T04:06:29.992Z,75.50
2023-04-17T04:08:57.980Z,75.40
2023-04-17T04:11:25.351Z,75.30
2023-04-17T04:13:52.922Z,75.10
2023-04-17T04:16:20.363Z,74.90
2023-04-17T04:18:49.379Z,74.70
2023-04-17T04:21:18.629Z,74.80
2023-04-17T04:23:46.018Z,74.70
2023-04-17T04:26:17.004Z,74.60
2023-04-17T04:28:50.134Z,74.50
2023-04-17T04:31:31.987Z,74.60
2023-04-17T04:34:02.905Z,74.50
2023-04-17T04:36:31.086Z,74.50
2023-04-17T04:39:17.917Z,74.60
2023-04-17T04:41:45.905Z,74.50
2023-04-17T04:44:14.239Z,74.40
2023-04-17T04:46:43.069Z,74.40
2023-04-17T04:49:12.352Z,74.30
2023-04-17T04:51:40.429Z,74.30
2023-04-17T04:54:09.301Z,74.50
2023-04-17T04:56:45.067Z,75.20
2023-04-17T04:59:14.545Z,74.30
2023-04-17T05:01:47.739Z,74.30
2023-04-17T05:04:18.519Z,74.10
2023-04-17T05:06:48.880Z,74.10
2023-04-17T05:09:17.443Z,74.00
2023-04-17T05:11:46.651Z,73.80
2023-04-17T05:14:14.278Z,73.80
2023-04-17T05:16:43.428Z,73.90
2023-04-17T05:19:12.065Z,73.90
2023-04-17T05:21:59.906Z,73.60
2023-04-17T05:24:27.903Z,73.60
2023-04-17T05:26:57.120Z,73.70
2023-04-17T05:29:25.166Z,73.40
2023-04-17T05:31:54.350Z,73.30
2023-04-17T05:34:40.946Z,73.50
2023-04-17T05:37:09.667Z,73.30
2023-04-17T05:39:48.962Z,73.50
2023-04-17T05:42:17.200Z,73.40
2023-04-17T05:44:44.934Z,73.40
2023-04-17T05:47:12.550Z,73.20
2023-04-17T05:49:40.134Z,73.10
2023-04-17T05:52:07.586Z,73.00
2023-04-17T05:54:39.786Z,72.90
2023-04-17T05:57:09.401Z,72.90
2023-04-17T05:59:37.073Z,73.00
2023-04-17T06:02:04.803Z,72.80
2023-04-17T06:04:33.980Z,72.90
2023-04-17T06:07:02.950Z,72.80
2023-04-17T06:09:30.545Z,72.90
2023-04-17T06:11:59.248Z,72.80
2023-04-17T06:14:27.323Z,72.80
2023-04-17T06:16:54.841Z,72.80
2023-04-17T06:19:23.323Z,72.90
2023-04-17T06:21:51.255Z,73.00
2023-04-17T06:24:20.334Z,72.70
2023-04-17T06:26:48.547Z,72.80
2023-04-17T06:29:16.671Z,72.70
2023-04-17T06:31:45.347Z,72.40
2023-04-17T06:34:15.447Z,71.50
2023-04-17T06:36:45.808Z,71.50
2023-04-17T06:39:15.909Z,70.90
2023-04-17T06:41:43.681Z,70.60
2023-04-17T06:44:13.161Z,70.20
2023-04-17T06:46:54.143Z,69.90
2023-04-17T06:49:21.744Z,69.70
2023-04-17T06:51:49.609Z,69.90
2023-04-17T06:54:17.701Z,69.60
2023-04-17T06:56:45.253Z,69.50
2023-04-17T06:59:13.117Z,69.50
2023-04-17T07:01:41.042Z,69.70
2023-04-17T07:04:09.542Z,70.30
2023-04-17T07:06:39.430Z,69.60
2023-04-17T07:09:06.908Z,69.30
2023-04-17T07:11:38.537Z,69.30
2023-04-17T07:14:06.314Z,69.40
2023-04-17T07:16:34.012Z,69.10
2023-04-17T07:19:01.488Z,68.50
2023-04-17T07:21:28.853Z,68.70
2023-04-17T07:23:56.246Z,67.80
2023-04-17T07:26:24.082Z,67.00
2023-04-17T07:28:51.909Z,66.80
2023-04-17T07:31:19.881Z,66.30
2023-04-17T07:33:47.666Z,65.20
2023-04-17T07:36:16.514Z,64.10
2023-04-17T07:38:43.862Z,64.20
2023-04-17T07:41:12.309Z,64.20
2023-04-17T07:43:40.330Z,64.00
2023-04-17T07:46:07.956Z,63.80
2023-04-17T07:48:35.577Z,62.20
2023-04-17T07:51:03.113Z,62.80
2023-04-17T07:53:30.856Z,62.10
2023-04-17T07:55:58.889Z,61.40
2023-04-17T07:58:27.139Z,60.90
2023-04-17T08:00:54.871Z,60.80
2023-04-17T08:03:24.509Z,61.70
2023-04-17T08:05:52.274Z,62.20
2023-04-17T08:08:19.994Z,62.20
2023-04-17T08:10:47.527Z,62.20
2023-04-17T08:13:14.993Z,62.60
2023-04-17T08:15:42.451Z,62.30
2023-04-17T08:18:10.704Z,62.50
2023-04-17T08:20:38.347Z,62.30
2023-04-17T08:23:06.103Z,63.10
2023-04-17T08:25:33.861Z,62.40
2023-04-17T08:28:01.342Z,62.40
2023-04-17T08:30:28.967Z,62.30
2023-04-17T08:32:57.456Z,62.10
2023-04-17T08:35:26.724Z,61.90
2023-04-17T08:37:56.798Z,61.50
2023-04-17T08:40:26.170Z,61.70
2023-04-17T08:42:54.763Z,62.00
2023-04-17T08:45:26.655Z,62.00
2023-04-17T08:47:54.415Z,62.10
2023-04-17T08:50:22.279Z,62.30
2023-04-17T08:52:52.110Z,62.80
2023-04-17T08:55:21.187Z,62.60
2023-04-17T08:58:01.161Z,62.30
2023-04-17T09:00:31.472Z,61.90
2023-04-17T09:03:01.133Z,62.40
2023-04-17T09:05:30.644Z,62.40
2023-04-17T09:08:21.293Z,61.60
2023-04-17T09:10:49.643Z,61.50
2023-04-17T09:13:19.271Z,61.90
2023-04-17T09:16:03.155Z,61.70
2023-04-17T09:18:32.733Z,61.10
2023-04-17T09:21:01.461Z,60.80
2023-04-17T09:23:31.636Z,61.30
2023-04-17T09:26:11.377Z,61.10
2023-04-17T09:28:40.081Z,61.40
2023-04-17T09:31:26.355Z,62.00
2023-04-17T09:33:58.073Z,61.80
2023-04-17T09:36:27.599Z,62.00
2023-04-17T09:38:55.357Z,62.50
2023-04-17T09:41:28.175Z,62.40
2023-04-17T09:44:01.031Z,62.10
2023-04-17T09:46:38.936Z,62.10
2023-04-17T09:49:16.007Z,62.30
2023-04-17T09:51:43.635Z,62.50
2023-04-17T09:54:12.392Z,62.70
2023-04-17T09:56:41.278Z,62.90
2023-04-17T09:59:10.057Z,62.40
2023-04-17T10:01:38.289Z,62.40
2023-04-17T10:04:06.329Z,62.70
2023-04-17T10:06:35.973Z,62.60
2023-04-17T10:09:07.986Z,62.40
2023-04-17T10:11:38.220Z,62.60
2023-04-17T10:14:17.314Z,62.80
2023-04-17T10:16:44.879Z,62.80
2023-04-17T10:19:37.745Z,63.10
2023-04-17T10:22:20.433Z,63.10
2023-04-17T10:24:52.818Z,62.80
2023-04-17T10:27:26.828Z,62.60
2023-04-17T10:30:02.683Z,62.70
2023-04-17T10:32:31.505Z,62.60
2023-04-17T10:35:23.140Z,62.40
2023-04-17T10:37:53.421Z,62.30
2023-04-17T10:40:23.647Z,62.50
2023-04-17T10:43:18.016Z,63.00
2023-04-17T10:46:10.119Z,63.10
2023-04-17T10:48:53.188Z,63.10
2023-04-17T10:51:21.842Z,62.90
2023-04-17T10:53:53.310Z,62.70
2023-04-17T10:56:35.548Z,62.70
2023-04-17T10:59:05.300Z,62.60
2023-04-17T11:01:42.787Z,62.50
2023-04-17T11:04:11.632Z,62.70
2023-04-17T11:06:40.669Z,63.20
2023-04-17T11:09:10.635Z,63.10
2023-04-17T11:11:44.741Z,63.00
2023-04-17T11:14:17.957Z,62.40
2023-04-17T11:16:48.606Z,62.60
2023-04-17T11:19:23.937Z,62.70
2023-04-17T11:21:53.715Z,63.20
2023-04-17T11:24:25.734Z,62.70
2023-04-17T11:26:53.987Z,62.80
2023-04-17T11:29:23.252Z,62.70
2023-04-17T11:31:56.577Z,62.50
2023-04-17T11:34:26.837Z,62.00
2023-04-17T11:36:56.650Z,61.80
2023-04-17T11:39:25.978Z,62.00
2023-04-17T11:41:53.845Z,62.60
2023-04-17T11:44:21.631Z,61.90
2023-04-17T11:46:58.508Z,61.50
2023-04-17T11:49:37.439Z,61.60
2023-04-17T11:52:05.694Z,62.10
2023-04-17T11:54:38.188Z,62.40
2023-04-17T11:57:11.846Z,62.30
2023-04-17T11:59:42.242Z,62.00
2023-04-17T12:02:12.317Z,61.70
2023-04-17T12:04:40.778Z,61.30
2023-04-17T12:07:20.776Z,61.50
2023-04-17T12:09:56.976Z,62.10
2023-04-17T12:12:24.582Z,61.50
2023-04-17T12:14:52.271Z,61.30
2023-04-17T12:17:19.714Z,61.40
2023-04-17T12:19:47.323Z,61.80
2023-04-17T12:22:14.885Z,61.20
2023-04-17T12:24:42.494Z,61.00
2023-04-17T12:27:09.936Z,61.10
2023-04-17T12:32:10.970Z,61.30
2023-04-17T12:34:38.637Z,61.30
2023-04-17T12:37:06.329Z,61.20
2023-04-17T12:39:34.067Z,61.10
2023-04-17T12:42:01.505Z,60.60
2023-04-17T12:44:29.186Z,60.60
2023-04-17T12:46:56.617Z,60.50
2023-04-17T12:49:24.248Z,60.70
2023-04-17T12:51:51.909Z,60.90
2023-04-17T12:54:19.434Z,61.10
2023-04-17T12:56:46.906Z,61.00
2023-04-17T12:59:14.429Z,61.20
2023-04-17T13:01:42.566Z,61.60
2023-04-17T13:04:10.553Z,61.30
2023-04-17T13:06:38.241Z,61.10
2023-04-17T13:09:06.259Z,62.00
2023-04-17T13:11:33.690Z,61.60
2023-04-17T13:14:01.055Z,61.40
2023-04-17T13:16:28.582Z,61.80
2023-04-17T13:18:56.201Z,61.90
2023-04-17T13:21:23.849Z,61.60
2023-04-17T13:23:51.354Z,61.60
2023-04-17T13:26:20.391Z,61.70
2023-04-17T13:28:47.935Z,61.70
2023-04-17T13:31:15.526Z,61.50
2023-04-17T13:33:44.990Z,61.30
2023-04-17T13:36:12.663Z,61.30
2023-04-17T13:38:40.113Z,61.30
2023-04-17T13:41:07.833Z,61.20
2023-04-17T13:43:35.427Z,61.70
2023-04-17T13:46:03.000Z,61.70
2023-04-17T13:48:30.644Z,62.10
2023-04-17T13:50:57.983Z,62.40
2023-04-17T13:53:25.449Z,62.30
2023-04-17T13:55:53.029Z,62.30
2023-04-17T13:58:20.725Z,62.70
2023-04-17T14:00:48.338Z,61.70
2023-04-17T14:03:16.097Z,61.70
2023-04-17T14:05:44.010Z,61.80
2023-04-17T14:08:11.725Z,62.70
2023-04-17T14:10:39.183Z,62.30
2023-04-17T14:13:07.198Z,62.40
2023-04-17T14:15:34.740Z,62.80
2023-04-17T14:18:02.154Z,63.20
2023-04-17T14:20:29.565Z,63.30
2023-04-17T14:22:57.169Z,63.30
2023-04-17T14:25:24.558Z,63.50
2023-04-17T14:27:52.502Z,63.60
2023-04-17T14:30:20.001Z,63.80
2023-04-17T14:32:48.050Z,63.80
2023-04-17T14:35:15.612Z,64.10
2023-04-17T14:37:43.054Z,64.30
2023-04-17T14:40:10.961Z,64.40
2023-04-17T14:42:51.218Z,64.50
2023-04-17T14:45:21.780Z,64.30
2023-04-17T14:47:49.735Z,64.00
2023-04-17T14:50:17.697Z,63.90
2023-04-17T14:52:45.340Z,64.10
2023-04-17T14:55:13.252Z,64.10
2023-04-17T14:57:40.933Z,64.10
2023-04-17T15:00:08.698Z,64.20
2023-04-17T15:02:39.098Z,64.20
2023-04-17T15:05:07.703Z,64.40
2023-04-17T15:07:35.696Z,64.50
2023-04-17T15:10:04.758Z,64.70
2023-04-17T15:12:32.116Z,64.70
2023-04-17T15:14:59.516Z,64.60
2023-04-17T15:17:26.807Z,65.00
2023-04-17T15:19:57.223Z,65.00
2023-04-17T15:22:26.795Z,65.00
2023-04-17T15:24:54.075Z,65.10
2023-04-17T15:27:21.554Z,65.30
2023-04-17T15:29:49.054Z,65.60
2023-04-17T15:32:16.814Z,65.60
2023-04-17T15:34:44.306Z,65.80
2023-04-17T15:37:13.180Z,65.80
2023-04-17T15:39:40.682Z,65.90
2023-04-17T15:42:09.560Z,65.90
2023-04-17T15:44:37.700Z,66.10
2023-04-17T15:47:06.894Z,66.50
2023-04-17T15:49:34.454Z,66.50
2023-04-17T15:52:02.112Z,66.60
2023-04-17T15:54:29.475Z,66.70
2023-04-17T15:56:57.054Z,66.60
2023-04-17T15:59:24.573Z,66.60
2023-04-17T16:01:53.337Z,66.50
2023-04-17T16:04:20.996Z,66.60
2023-04-17T16:06:48.716Z,66.80
2023-04-17T16:09:19.864Z,67.10
2023-04-17T16:11:48.477Z,67.40
2023-04-17T16:14:16.107Z,67.50
2023-04-17T16:16:43.450Z,67.50
2023-04-17T16:19:11.243Z,67.70
2023-04-17T16:21:38.987Z,67.60
2023-04-17T16:24:06.556Z,67.60
2023-04-17T16:26:34.224Z,67.70
2023-04-17T16:29:01.738Z,67.60
2023-04-17T16:31:29.534Z,67.60
2023-04-17T16:33:56.950Z,67.50
2023-04-17T16:36:24.412Z,67.40
2023-04-17T16:38:52.043Z,67.50
2023-04-17T16:41:20.365Z,67.40
2023-04-17T16:43:47.816Z,67.50
2023-04-17T16:46:23.793Z,67.50
2023-04-17T16:48:56.322Z,67.50
2023-04-17T16:51:23.714Z,67.60
2023-04-17T16:53:51.674Z,67.60
2023-04-17T16:56:19.264Z,67.50
2023-04-17T16:58:46.882Z,67.60
2023-04-17T17:01:14.535Z,67.70
2023-04-17T17:03:43.295Z,67.60
2023-04-17T17:06:10.750Z,67.60
2023-04-17T17:08:38.910Z,68.40
2023-04-17T17:11:06.446Z,67.40
2023-04-17T17:13:33.720Z,67.90
2023-04-17T17:16:01.329Z,67.20
2023-04-17T17:18:28.694Z,67.30
2023-04-17T17:20:58.527Z,67.20
2023-04-17T17:23:26.846Z,67.30
2023-04-17T17:25:54.444Z,67.30
2023-04-17T17:28:21.906Z,67.40
2023-04-17T17:30:49.640Z,67.40
2023-04-17T17:33:17.259Z,67.40
2023-04-17T17:35:44.634Z,67.60
2023-04-17T17:38:12.286Z,67.50
2023-04-17T17:40:39.917Z,67.50
2023-04-17T17:43:07.294Z,67.40
2023-04-17T17:45:34.620Z,67.40
2023-04-17T17:48:01.982Z,67.50
2023-04-17T17:50:29.358Z,67.80
2023-04-17T17:52:58.790Z,67.40
2023-04-17T17:55:26.745Z,67.40
2023-04-17T17:57:54.430Z,67.50
2023-04-17T18:00:22.028Z,67.60
2023-04-17T18:02:49.652Z,67.60
2023-04-17T18:05:17.473Z,67.80
2023-04-17T18:07:45.001Z,67.80
2023-04-17T18:10:12.610Z,67.90
2023-04-17T18:12:39.836Z,68.00
2023-04-17T18:15:07.803Z,68.20
2023-04-17T18:17:35.115Z,68.10
2023-04-17T18:20:02.517Z,68.10
2023-04-17T18:22:29.790Z,68.10
2023-04-17T18:24:57.298Z,68.10
2023-04-17T18:27:24.554Z,68.10
2023-04-17T18:29:51.755Z,68.00
2023-04-17T18:32:18.980Z,68.10
2023-04-17T18:34:49.096Z,68.20
2023-04-17T18:37:18.118Z,68.40
2023-04-17T18:39:45.605Z,68.20
2023-04-17T18:42:13.244Z,68.20
2023-04-17T18:44:41.663Z,68.10
2023-04-17T18:47:09.135Z,68.00
2023-04-17T18:49:36.368Z,67.80
2023-04-17T18:52:05.071Z,67.60
2023-04-17T18:54:32.527Z,67.70
2023-04-17T18:56:59.808Z,67.70
2023-04-17T18:59:28.143Z,67.80
2023-04-17T19:01:55.731Z,67.70
2023-04-17T19:04:23.263Z,67.70
2023-04-17T19:06:50.916Z,67.70
2023-04-17T19:09:18.511Z,67.50
2023-04-17T19:11:46.049Z,67.40
2023-04-17T19:14:14.005Z,67.40
2023-04-17T19:16:41.676Z,67.10
2023-04-17T19:19:11.094Z,67.10
2023-04-17T19:21:38.707Z,67.00
2023-04-17T19:24:07.128Z,66.80
2023-04-17T19:26:34.518Z,66.80
2023-04-17T19:29:03.200Z,66.70
2023-04-17T19:31:31.466Z,66.60
2023-04-17T19:33:59.548Z,66.40
2023-04-17T19:36:28.107Z,66.30
2023-04-17T19:38:59.133Z,66.30
2023-04-17T19:41:28.094Z,66.30
2023-04-17T19:43:55.626Z,66.10
2023-04-17T19:46:24.173Z,66.10
2023-04-17T19:48:52.325Z,66.20
2023-04-17T19:51:19.993Z,66.10
2023-04-17T19:53:53.083Z,66.20
2023-04-17T19:56:21.051Z,66.30
2023-04-17T19:58:48.456Z,66.30
2023-04-17T20:01:16.396Z,66.30
2023-04-17T20:03:45.357Z,66.40
2023-04-17T20:06:13.915Z,66.60
2023-04-17T20:08:41.523Z,66.50
2023-04-17T20:11:11.827Z,66.40
2023-04-17T20:13:39.612Z,66.50
2023-04-17T20:16:07.388Z,66.50
2023-04-17T20:18:36.944Z,66.50
2023-04-17T20:21:06.410Z,66.50
2023-04-17T20:23:33.829Z,66.50
2023-04-17T20:26:03.112Z,66.50
2023-04-17T20:28:30.674Z,66.50
2023-04-17T20:30:58.401Z,66.40
2023-04-17T20:33:25.742Z,66.50
2023-04-17T20:35:53.189Z,66.50
2023-04-17T20:38:20.521Z,66.50
2023-04-17T20:40:48.073Z,66.50
2023-04-17T20:43:16.786Z,66.40
2023-04-17T20:45:44.656Z,66.40
2023-04-17T20:48:12.193Z,66.50
2023-04-17T20:50:39.532Z,66.70
2023-04-17T20:53:06.750Z,66.70
2023-04-17T20:55:35.981Z,67.10
2023-04-17T20:58:03.283Z,67.10
2023-04-17T21:00:30.951Z,67.10
2023-04-17T21:02:58.281Z,67.30
2023-04-17T21:05:26.087Z,67.40
2023-04-17T21:07:54.324Z,67.60
2023-04-17T21:10:21.809Z,67.90
2023-04-17T21:12:49.050Z,68.00
2023-04-17T21:15:16.406Z,68.20
2023-04-17T21:17:46.811Z,68.40
2023-04-17T21:20:14.778Z,68.60
2023-04-17T21:22:42.081Z,68.90
2023-04-17T21:25:09.735Z,69.10
2023-04-17T21:27:37.144Z,69.10
2023-04-17T21:30:07.561Z,69.20
2023-04-17T21:32:35.085Z,69.40
2023-04-17T21:35:03.261Z,69.50
2023-04-17T21:37:30.502Z,69.50
2023-04-17T21:39:57.874Z,69.60
2023-04-17T21:42:26.078Z,69.70
2023-04-17T21:44:53.404Z,69.90
2023-04-17T21:47:21.066Z,70.00
2023-04-17T21:49:49.283Z,70.20
2023-04-17T21:52:16.918Z,70.30
2023-04-17T21:54:44.271Z,70.40
2023-04-17T21:57:11.826Z,70.50
2023-04-17T21:59:39.828Z,70.50
2023-04-17T22:02:07.229Z,70.40
2023-04-17T22:04:34.763Z,70.40
2023-04-17T22:07:02.183Z,70.60
2023-04-17T22:09:29.445Z,70.80
2023-04-17T22:11:58.725Z,70.80
2023-04-17T22:14:26.095Z,70.80
2023-04-17T22:16:53.325Z,70.80
2023-04-17T22:19:20.733Z,70.80
2023-04-17T22:21:47.927Z,71.00
2023-04-17T22:24:15.569Z,71.10
2023-04-17T22:26:42.894Z,71.10
2023-04-17T22:29:10.106Z,71.20
2023-04-17T22:31:37.850Z,71.20
2023-04-17T22:34:05.117Z,72.10
2023-04-17T22:36:32.431Z,71.50
2023-04-17T22:38:59.769Z,71.60
2023-04-17T22:41:27.150Z,71.50
2023-04-17T22:43:54.543Z,71.50
2023-04-17T22:46:21.955Z,71.70
2023-04-17T22:48:49.669Z,72.10
2023-04-17T22:51:17.750Z,72.20
2023-04-17T22:53:45.177Z,72.50
2023-04-17T22:56:13.608Z,72.50
2023-04-17T22:58:41.046Z,72.40
2023-04-17T23:01:08.663Z,72.10
2023-04-17T23:03:36.020Z,72.00
2023-04-17T23:06:03.879Z,72.00
2023-04-17T23:08:31.228Z,72.10
2023-04-17T23:10:59.794Z,72.20
2023-04-17T23:13:28.448Z,72.00
2023-04-17T23:15:55.925Z,72.00
2023-04-17T23:18:23.666Z,71.90
2023-04-17T23:20:51.210Z,72.10
2023-04-17T23:23:19.182Z,72.00
2023-04-17T23:25:46.410Z,71.90
2023-04-17T23:28:13.957Z,72.00
2023-04-17T23:30:41.589Z,71.90
2023-04-17T23:33:09.845Z,72.00
2023-04-17T23:35:37.208Z,72.20
2023-04-17T23:38:04.560Z,72.20
2023-04-17T23:40:32.646Z,72.30
2023-04-17T23:43:00.117Z,72.30
2023-04-17T23:45:27.578Z,72.30
2023-04-17T23:47:55.309Z,72.40
2023-04-17T23:50:22.737Z,72.50
2023-04-17T23:52:50.268Z,72.40
2023-04-17T23:55:17.531Z,72.30
2023-04-17T23:57:44.909Z,72.40
